| time (UTC) | temp C | wind direction | speed KPH | gust KPH | rain 1hr cm | rain 24hr cm | rain mn cm | humidity % | barometer mb |
| 20260906173004 | 17 | 60 | 12.9 | 14.5 | 0.00 | 0.00 | 0.00 | 87 | 1019.2 |
| 20260906171504 | 17 | 49 | 9.7 | 12.9 | 0.00 | 0.00 | 0.00 | 86 | 1019.5 |
| 20260906170009 | 17 | 38 | 8.0 | 11.3 | 0.00 | 0.00 | 0.00 | 87 | 1018.7 |
| 20260906164517 | 17 | 73 | 9.7 | 11.3 | 0.00 | 0.00 | 0.00 | 86 | 1019.7 |
| 20260906163003 | 17 | 70 | 8.0 | 8.0 | 0.00 | 0.00 | 0.00 | 86 | 1017.6 |
| 20260906161505 | 17 | 51 | 8.0 | 11.3 | 0.00 | 0.00 | 0.00 | 86 | 1019.7 |
| 20260906160008 | 17 | 70 | 12.9 | 14.5 | 0.00 | 0.00 | 0.00 | 85 | 1018.1 |
| 20260906154514 | 17 | 64 | 11.3 | 12.9 | 0.00 | 0.00 | 0.00 | 85 | 1019.7 |
| 20260906153019 | 17 | 48 | 12.9 | 16.1 | 0.00 | 0.00 | 0.00 | 84 | 1018.9 |
| 20260906151504 | 17 | 50 | 14.5 | 16.1 | 0.00 | 0.00 | 0.00 | 84 | 1019.9 |
| 20260906150004 | 17 | 56 | 12.9 | 17.7 | 0.00 | 0.00 | 0.00 | 84 | 1019.8 |
| 20260906144515 | 17 | 51 | 14.5 | 16.1 | 0.00 | 0.00 | 0.00 | 82 | 1017.1 |
| 20260906143016 | 17 | 53 | 16.1 | 19.3 | 0.00 | 0.00 | 0.00 | 83 | 1019.6 |
| 20260906141524 | 17 | 47 | 12.9 | 16.1 | 0.00 | 0.00 | 0.00 | 82 | 1019.8 |
| 20260906140009 | 17 | 51 | 12.9 | 14.5 | 0.00 | 0.00 | 0.00 | 80 | 1020.0 |
| 20260906134511 | 17 | 37 | 11.3 | 16.1 | 0.00 | 0.00 | 0.00 | 81 | 1019.9 |
| 20260906133014 | 17 | 39 | 12.9 | 14.5 | 0.00 | 0.00 | 0.00 | 81 | 1020.1 |
| 20260906131523 | 17 | 43 | 8.0 | 11.3 | 0.00 | 0.00 | 0.00 | 82 | 1020.1 |
| 20260906130028 | 17 | 37 | 11.3 | 11.3 | 0.00 | 0.00 | 0.00 | 83 | 1020.2 |
| 20260906124510 | 17 | 47 | 9.7 | 11.3 | 0.00 | 0.00 | 0.00 | 83 | 1019.8 |
| 20260906123033 | 17 | 27 | 6.4 | 8.0 | 0.00 | 0.00 | 0.00 | 82 | 1019.7 |
| 20260906121519 | 16 | 24 | 6.4 | 11.3 | 0.00 | 0.00 | 0.00 | 83 | 1019.4 |
| 20260906120025 | 16 | 24 | 8.0 | 11.3 | 0.00 | 0.00 | 0.00 | 84 | 1019.2 |
| 20260906114530 | 16 | 12 | 8.0 | 11.3 | 0.00 | 0.00 | 0.00 | 84 | 1019.1 |
| 20260906113009 | 16 | 1 | 8.0 | 9.7 | 0.00 | 0.00 | 0.00 | 85 | 1019.0 |
| 20260906111516 | 16 | 4 | 4.8 | 6.4 | 0.00 | 0.00 | 0.00 | 86 | 1018.8 |
| 20260906110023 | 16 | 8 | 3.2 | 4.8 | 0.00 | 0.00 | 0.00 | 88 | 1017.9 |
| 20260906104526 | 16 | 1 | 4.8 | 6.4 | 0.00 | 0.00 | 0.00 | 88 | 1018.4 |
| 20260906103032 | 16 | 1 | 3.2 | 4.8 | 0.00 | 0.00 | 0.00 | 89 | 1018.4 |
| 20260906101514 | 16 | 22 | 3.2 | 3.2 | 0.00 | 0.00 | 0.00 | 90 | 1018.4 |
| 20260906100017 | 16 | 23 | 1.6 | 3.2 | 0.00 | 0.00 | 0.00 | 90 | 1018.5 |
| 20260906094528 | 16 | 23 | 3.2 | 4.8 | 0.00 | 0.00 | 0.00 | 90 | 1018.6 |
| 20260906093040 | 16 | 23 | 4.8 | 4.8 | 0.00 | 0.00 | 0.00 | 90 | 1018.5 |
| 20260906091507 | 16 | 24 | 6.4 | 8.0 | 0.00 | 0.00 | 0.00 | 89 | 1018.3 |
| 20260906090014 | 16 | 57 | 8.0 | 8.0 | 0.00 | 0.00 | 0.00 | 89 | 1018.4 |
| 20260906084538 | 16 | 82 | 4.8 | 6.4 | 0.00 | 0.00 | 0.00 | 90 | 1018.5 |
| 20260906083028 | 16 | 78 | 4.8 | 6.4 | 0.00 | 0.00 | 0.00 | 91 | 1018.4 |
| 20260906081534 | 16 | 78 | 4.8 | 6.4 | 0.00 | 0.00 | 0.00 | 91 | 1018.6 |
| 20260906080014 | 17 | 64 | 3.2 | 6.4 | 0.00 | 0.00 | 0.00 | 91 | 1018.8 |
| 20260906074532 | 17 | 58 | 4.8 | 6.4 | 0.00 | 0.00 | 0.00 | 91 | 1018.8 |
| 20260906073029 | 17 | 37 | 6.4 | 6.4 | 0.00 | 0.00 | 0.00 | 88 | 1018.8 |
| 20260906070031 | 17 | 37 | 1.6 | 4.8 | 0.00 | 0.00 | 0.00 | 86 | 1018.4 |
| 20260906064517 | 17 | 37 | 4.8 | 6.4 | 0.00 | 0.00 | 0.00 | 85 | 1018.4 |
| 20260906063023 | 17 | 37 | 0.0 | 4.8 | 0.00 | 0.00 | 0.00 | 85 | 1018.3 |
| 20260906061506 | 17 | 37 | 4.8 | 6.4 | 0.00 | 0.00 | 0.00 | 85 | 1018.4 |
| 20260906060011 | 17 | 41 | 4.8 | 8.0 | 0.00 | 0.00 | 0.00 | 84 | 1018.2 |
| 20260906054533 | 17 | 38 | 8.0 | 11.3 | 0.00 | 0.00 | 0.00 | 85 | 1018.3 |
| 20260906053022 | 17 | 41 | 8.0 | 9.7 | 0.00 | 0.00 | 0.00 | 85 | 1018.2 |
| 20260906051504 | 17 | 53 | 8.0 | 9.7 | 0.00 | 0.00 | 0.00 | 85 | 1018.4 |
| 20260906050008 | 17 | 51 | 6.4 | 8.0 | 0.00 | 0.00 | 0.00 | 85 | 1018.5 |
| 20260906044512 | 18 | 54 | 6.4 | 8.0 | 0.00 | 0.00 | 0.00 | 84 | 1018.5 |
| 20260906043031 | 18 | 51 | 6.4 | 8.0 | 0.00 | 0.00 | 0.00 | 84 | 1018.7 |
| 20260906041535 | 18 | 44 | 8.0 | 11.3 | 0.00 | 0.00 | 0.00 | 83 | 1018.9 |
| 20260906040004 | 18 | 41 | 9.7 | 12.9 | 0.00 | 0.00 | 0.00 | 83 | 1018.7 |
| 20260906034510 | 18 | 41 | 11.3 | 17.7 | 0.00 | 0.00 | 0.00 | 84 | 1018.6 |
| 20260906033017 | 18 | 41 | 17.7 | 20.9 | 0.00 | 0.00 | 0.00 | 84 | 1018.4 |
| 20260906031519 | 17 | 49 | 14.5 | 17.7 | 0.00 | 0.00 | 0.00 | 86 | 1018.3 |
| 20260906030026 | 17 | 37 | 9.7 | 16.1 | 0.00 | 0.00 | 0.00 | 88 | 1018.3 |
| 20260906024531 | 17 | 46 | 8.0 | 11.3 | 0.00 | 0.00 | 0.00 | 90 | 1018.0 |
| 20260906023012 | 17 | 66 | 11.3 | 14.5 | 0.00 | 0.00 | 0.00 | 90 | 1017.8 |
| 20260906021518 | 17 | 51 | 14.5 | 17.7 | 0.00 | 0.00 | 0.00 | 90 | 1017.5 |
| 20260906020027 | 17 | 43 | 14.5 | 17.7 | 0.00 | 0.00 | 0.00 | 90 | 1017.6 |
| 20260906014538 | 17 | 59 | 14.5 | 17.7 | 0.00 | 0.00 | 0.00 | 89 | 1017.2 |
| 20260906013010 | 17 | 56 | 17.7 | 19.3 | 0.00 | 0.00 | 0.00 | 89 | 1017.0 |
| 20260906011517 | 17 | 36 | 14.5 | 17.7 | 0.00 | 0.00 | 0.00 | 89 | 1017.1 |
| 20260906010023 | 17 | 37 | 14.5 | 16.1 | 0.00 | 0.00 | 0.00 | 90 | 1016.9 |
| 20260906003030 | 17 | 42 | 16.1 | 19.3 | 0.00 | 0.00 | 0.00 | 91 | 1016.9 |
| 20260906001533 | 17 | 37 | 16.1 | 19.3 | 0.00 | 0.00 | 0.00 | 91 | 1017.1 |
| 20260906000019 | 17 | 50 | 14.5 | 19.3 | 0.00 | 0.00 | 0.00 | 91 | 1017.1 |
| 20260905234526 | 17 | 53 | 17.7 | 20.9 | 0.00 | 0.00 | 0.00 | 91 | 1017.4 |
| 20260905233035 | 16 | 42 | 14.5 | 17.7 | 0.00 | 0.00 | 0.00 | 91 | 1017.8 |
| 20260905231535 | 17 | 46 | 14.5 | 14.5 | 0.00 | 0.00 | 0.00 | 91 | 1017.8 |
| 20260905230019 | 17 | 46 | 12.9 | 14.5 | 0.00 | 0.00 | 0.00 | 91 | 1017.7 |
| 20260905224525 | 17 | 44 | 12.9 | 14.5 | 0.00 | 0.00 | 0.00 | 91 | 1017.8 |
| 20260905221537 | 17 | 39 | 8.0 | 9.7 | 0.00 | 0.00 | 0.00 | 91 | 1018.0 |
| 20260905220033 | 16 | 49 | 4.8 | 8.0 | 0.00 | 0.00 | 0.00 | 91 | 1018.0 |
| 20260905214535 | 16 | 359 | 4.8 | 9.7 | 0.00 | 0.00 | 0.00 | 92 | 1018.2 |
| 20260905213037 | 16 | 52 | 4.8 | 6.4 | 0.00 | 0.00 | 0.00 | 92 | 1018.1 |
| 20260905211534 | 16 | 74 | 1.6 | 3.2 | 0.00 | 0.00 | 0.00 | 91 | 1018.5 |
| 20260905210034 | 16 | 69 | 3.2 | 4.8 | 0.00 | 0.00 | 0.00 | 91 | 1018.0 |
| 20260905204536 | 16 | 58 | 3.2 | 4.8 | 0.00 | 0.00 | 0.00 | 91 | 1018.7 |
| 20260905203038 | 16 | 39 | 3.2 | 9.7 | 0.00 | 0.00 | 0.00 | 91 | 1018.6 |
| 20260905201530 | 16 | 56 | 8.0 | 12.9 | 0.00 | 0.00 | 0.00 | 91 | 1018.6 |
| 20260905200035 | 16 | 50 | 11.3 | 14.5 | 0.00 | 0.00 | 0.00 | 91 | 1018.0 |
| 20260905193023 | 16 | 44 | 16.1 | 19.3 | 0.00 | 0.00 | 0.00 | 90 | 1016.0 |
| 20260905191535 | 16 | 54 | 12.9 | 17.7 | 0.00 | 0.00 | 0.00 | 90 | 1018.7 |
| 20260905190046 | 16 | 44 | 16.1 | 19.3 | 0.00 | 0.00 | 0.00 | 91 | 1016.8 |
| 20260905184541 | 16 | 44 | 14.5 | 20.9 | 0.00 | 0.00 | 0.00 | 92 | 1018.9 |
| 20260905183032 | 16 | 60 | 22.5 | 27.4 | 0.00 | 0.00 | 0.00 | 92 | 1016.3 |
| 20260905181527 | 16 | 58 | 20.9 | 24.1 | 0.00 | 0.00 | 0.00 | 92 | 1018.8 |
| 20260905180004 | 16 | 60 | 20.9 | 25.7 | 0.00 | 0.00 | 0.00 | 92 | 1018.8 |
| 20260905174509 | 16 | 49 | 22.5 | 25.7 | 0.00 | 0.00 | 0.00 | 92 | 1018.9 |